Time;durP1;ratioP1;P1;durP2;ratioP2;P2;SDS_P1;SDS_P2;PMS_P1;PMS_P2;Temp;Humidity;BMP_temperature;BMP_pressure;BME280_temperature;BME280_humidity;BME280_pressure;Samples;Min_cycle;Max_cycle;Signal;HPM_P1;HPM_P2
2024/03/28 00:01:07;;;;;;;7.53;6.83;;;7.90;99.90;;;;;;4993762;28;20219;-74
2024/03/28 00:03:32;;;;;;;7.73;6.27;;;7.80;99.90;;;;;;4992962;28;20188;-74
2024/03/28 00:05:59;;;;;;;7.17;6.57;;;7.80;99.90;;;;;;4993384;28;20180;-74
2024/03/28 00:08:26;;;;;;;6.77;6.17;;;7.80;99.90;;;;;;4993345;28;20173;-74
2024/03/28 00:10:52;;;;;;;6.43;5.90;;;7.80;99.90;;;;;;4993605;28;20653;-75
2024/03/28 00:13:18;;;;;;;6.53;6.03;;;7.80;99.90;;;;;;4993828;28;20215;-74
2024/03/28 00:15:44;;;;;;;6.57;5.87;;;7.80;99.90;;;;;;5011661;28;20637;-74
2024/03/28 00:18:10;;;;;;;6.57;5.97;;;7.70;99.90;;;;;;5012763;28;20178;-75
2024/03/28 00:20:36;;;;;;;6.53;6.03;;;7.70;99.90;;;;;;5012912;28;20561;-73
2024/03/28 00:23:02;;;;;;;5.97;5.47;;;7.80;99.90;;;;;;5012427;28;20192;-75
2024/03/28 00:25:30;;;;;;;5.97;5.43;;;7.70;99.90;;;;;;5012117;28;20172;-75
2024/03/28 00:28:00;;;;;;;10.67;5.90;;;7.80;99.90;;;;;;5012269;28;20196;-74
2024/03/28 00:30:25;;;;;;;6.47;5.87;;;7.70;99.90;;;;;;4992980;28;20223;-75
2024/03/28 00:32:51;;;;;;;6.13;5.53;;;7.70;99.90;;;;;;4992857;28;20674;-74
2024/03/28 00:35:17;;;;;;;6.27;5.80;;;7.70;99.90;;;;;;4992710;28;20239;-74
2024/03/28 00:37:43;;;;;;;6.30;5.70;;;7.70;99.90;;;;;;4992673;28;20707;-74
2024/03/28 00:40:10;;;;;;;6.37;5.97;;;7.70;99.90;;;;;;4992791;28;20176;-74
2024/03/28 00:42:36;;;;;;;6.20;5.80;;;7.70;99.90;;;;;;5003819;28;20204;-74
2024/03/28 00:45:02;;;;;;;6.03;5.40;;;7.70;99.90;;;;;;5012361;28;20222;-74
2024/03/28 00:47:27;;;;;;;6.47;5.87;;;7.60;99.90;;;;;;5010544;28;20394;-74
2024/03/28 00:49:53;;;;;;;6.43;5.93;;;7.60;99.90;;;;;;5012163;28;20744;-75
2024/03/28 00:52:18;;;;;;;6.33;5.37;;;7.70;99.90;;;;;;5012162;28;20184;-74
2024/03/28 00:54:44;;;;;;;5.90;5.40;;;7.60;99.90;;;;;;4994996;28;20519;-75
2024/03/28 00:57:10;;;;;;;5.70;5.30;;;7.60;99.90;;;;;;4992113;28;20250;-74
2024/03/28 00:59:36;;;;;;;5.47;5.00;;;7.60;99.90;;;;;;4992365;28;20185;-74
2024/03/28 01:02:01;;;;;;;6.83;5.20;;;7.60;99.90;;;;;;4992106;28;20239;-76
2024/03/28 01:04:27;;;;;;;5.67;5.27;;;7.60;99.90;;;;;;4992128;28;20227;-75
2024/03/28 01:06:52;;;;;;;5.47;5.07;;;7.60;99.90;;;;;;4991961;28;20237;-76
2024/03/28 01:09:18;;;;;;;6.13;5.40;;;7.60;99.90;;;;;;4992468;28;20698;-76
2024/03/28 01:11:43;;;;;;;5.63;5.23;;;7.50;99.90;;;;;;4992062;28;20284;-75
2024/03/28 01:14:09;;;;;;;5.83;5.37;;;7.50;99.90;;;;;;4992285;28;20192;-74
2024/03/28 01:16:35;;;;;;;5.50;5.10;;;7.50;99.90;;;;;;4991572;28;20522;-74
2024/03/28 01:19:00;;;;;;;5.73;5.33;;;7.50;99.90;;;;;;4990986;28;20176;-74
2024/03/28 01:21:26;;;;;;;5.73;5.33;;;7.50;99.90;;;;;;4992162;28;20528;-73
2024/03/28 01:23:52;;;;;;;6.03;5.53;;;7.50;99.90;;;;;;5005430;28;20176;-74
2024/03/28 01:26:17;;;;;;;5.07;4.73;;;7.40;99.90;;;;;;5011808;28;20591;-73
2024/03/28 01:28:44;;;;;;;5.60;5.07;;;7.40;99.90;;;;;;5008504;28;20187;-74
2024/03/28 01:31:09;;;;;;;5.40;5.00;;;7.30;99.90;;;;;;4992553;28;20173;-74
2024/03/28 01:33:35;;;;;;;4.80;4.50;;;7.40;99.90;;;;;;4992376;28;20197;-74
2024/03/28 01:36:02;;;;;;;5.87;5.27;;;7.30;99.90;;;;;;4996294;28;20172;-75
2024/03/28 01:38:28;;;;;;;5.73;5.23;;;7.30;99.90;;;;;;5012475;28;20247;-74
2024/03/28 01:40:54;;;;;;;5.40;5.00;;;7.30;99.90;;;;;;5012402;28;20338;-73
2024/03/28 01:43:20;;;;;;;7.07;5.73;;;7.30;99.90;;;;;;5012416;28;20192;-74
2024/03/28 01:45:46;;;;;;;5.40;4.97;;;7.20;99.90;;;;;;5012195;28;20172;-74
2024/03/28 01:48:12;;;;;;;5.10;4.70;;;7.20;99.90;;;;;;5011928;28;20290;-75
2024/03/28 01:50:38;;;;;;;6.00;5.47;;;7.20;99.90;;;;;;5011686;28;20665;-75
2024/03/28 01:53:04;;;;;;;5.93;5.10;;;7.20;99.90;;;;;;5011743;28;20196;-75
2024/03/28 01:55:29;;;;;;;5.80;5.30;;;7.20;99.90;;;;;;5011655;28;20231;-77
2024/03/28 01:57:59;;;;;;;5.90;5.47;;;7.20;99.90;;;;;;5012017;28;20177;-75
2024/03/28 02:00:25;;;;;;;7.63;5.63;;;7.20;99.90;;;;;;5011750;28;20210;-75
2024/03/28 02:02:51;;;;;;;6.27;5.67;;;7.10;99.90;;;;;;5011342;28;20232;-74
2024/03/28 02:05:17;;;;;;;6.13;5.53;;;7.10;99.90;;;;;;4997517;28;20689;-75
2024/03/28 02:07:42;;;;;;;5.50;5.00;;;7.10;99.90;;;;;;4991944;28;20208;-76
2024/03/28 02:10:08;;;;;;;6.00;5.40;;;7.10;99.90;;;;;;4993503;28;20177;-75
2024/03/28 02:12:35;;;;;;;6.67;5.83;;;7.10;99.90;;;;;;5029529;23;20220;-72
2024/03/28 02:15:01;;;;;;;6.47;5.87;;;7.10;99.90;;;;;;5031365;28;20697;-72
2024/03/28 02:17:27;;;;;;;5.83;5.23;;;7.10;99.90;;;;;;5030722;28;20641;-72
2024/03/28 02:19:52;;;;;;;6.73;5.87;;;7.10;99.90;;;;;;5031182;28;20179;-72
2024/03/28 02:22:18;;;;;;;6.53;5.93;;;7.00;99.90;;;;;;5031051;28;20192;-72
2024/03/28 02:24:44;;;;;;;9.03;5.50;;;7.10;99.90;;;;;;5019802;28;20194;-72
2024/03/28 02:27:10;;;;;;;5.80;5.30;;;7.00;99.90;;;;;;5011014;28;20307;-72
2024/03/28 02:29:35;;;;;;;6.20;5.60;;;7.00;99.90;;;;;;5011410;28;20282;-72
2024/03/28 02:32:01;;;;;;;6.07;5.47;;;6.90;99.90;;;;;;5014745;28;20248;-72
2024/03/28 02:34:27;;;;;;;6.20;5.60;;;6.90;99.90;;;;;;5031062;28;20199;-72
2024/03/28 02:36:52;;;;;;;6.80;6.20;;;6.90;99.90;;;;;;5030854;28;20198;-72
2024/03/28 02:39:18;;;;;;;6.40;5.90;;;6.80;99.90;;;;;;5031237;28;20204;-72
2024/03/28 02:41:43;;;;;;;6.23;5.73;;;6.80;99.90;;;;;;5031138;28;20187;-72
2024/03/28 02:44:09;;;;;;;7.13;5.80;;;6.70;99.90;;;;;;5017245;28;20264;-72
2024/03/28 02:46:34;;;;;;;6.80;6.17;;;6.70;99.90;;;;;;5011065;28;20192;-72
2024/03/28 02:49:00;;;;;;;6.43;5.87;;;6.70;99.90;;;;;;5014909;28;20649;-72
2024/03/28 02:51:26;;;;;;;6.03;5.53;;;6.60;99.90;;;;;;5014968;28;20172;-72
2024/03/28 02:53:51;;;;;;;7.13;6.57;;;6.50;99.90;;;;;;5014868;28;20267;-72
2024/03/28 02:56:17;;;;;;;7.03;6.33;;;6.50;99.90;;;;;;5014834;28;20649;-72
2024/03/28 02:58:42;;;;;;;6.43;5.83;;;6.40;99.90;;;;;;5027056;28;20217;-72
2024/03/28 03:01:08;;;;;;;6.70;6.10;;;6.30;99.90;;;;;;5034807;28;20198;-72
2024/03/28 03:03:33;;;;;;;7.27;6.57;;;6.30;99.90;;;;;;5034468;28;20231;-72
2024/03/28 03:05:59;;;;;;;6.90;6.30;;;6.20;99.90;;;;;;5034738;28;20186;-72
2024/03/28 03:08:25;;;;;;;7.43;6.73;;;6.20;99.90;;;;;;5034589;28;20640;-72
2024/03/28 03:10:50;;;;;;;6.77;6.07;;;6.10;99.90;;;;;;5034670;28;20164;-72
2024/03/28 03:13:16;;;;;;;7.90;6.40;;;6.10;99.90;;;;;;5023358;28;20727;-72
2024/03/28 03:15:51;;;;;;;6.70;6.10;;;6.00;99.90;;;;;;5014969;28;20303;-72
2024/03/28 03:18:19;;;;;;;7.73;7.03;;;6.00;99.90;;;;;;5015173;28;20740;-72
2024/03/28 03:20:49;;;;;;;7.80;6.80;;;6.00;99.90;;;;;;5014648;28;20180;-72
2024/03/28 03:23:15;;;;;;;8.07;7.27;;;6.00;99.90;;;;;;5028313;28;20199;-72
2024/03/28 03:25:59;;;;;;;7.30;6.60;;;6.00;99.90;;;;;;5031195;28;20190;-73
2024/03/28 03:36:40;;;;;;;7.47;6.77;;;6.10;99.90;;;;;;5026572;28;20249;-72
2024/03/28 03:39:08;;;;;;;9.63;7.20;;;6.10;99.90;;;;;;5034335;28;20187;-72
2024/03/28 03:41:34;;;;;;;7.70;7.00;;;6.00;99.90;;;;;;5034349;28;20179;-72
2024/03/28 03:43:59;;;;;;;8.43;7.63;;;6.10;99.90;;;;;;5034281;28;20386;-72
2024/03/28 03:46:25;;;;;;;8.70;7.80;;;6.10;99.90;;;;;;5033414;28;20656;-72
2024/03/28 03:48:51;;;;;;;9.17;8.27;;;6.10;99.90;;;;;;5033607;28;20269;-72
2024/03/28 03:51:17;;;;;;;8.53;7.73;;;6.10;99.90;;;;;;5033734;28;20179;-72
2024/03/28 03:53:43;;;;;;;9.93;8.10;;;6.20;99.90;;;;;;5022571;28;20243;-72
2024/03/28 03:56:08;;;;;;;9.03;8.20;;;6.20;99.90;;;;;;5013267;28;20532;-72
2024/03/28 03:58:34;;;;;;;9.00;8.10;;;6.20;99.90;;;;;;5012070;28;20203;-71
2024/03/28 04:01:00;;;;;;;8.87;7.97;;;6.20;99.90;;;;;;5013335;28;20187;-71
2024/03/28 04:03:26;;;;;;;9.17;8.27;;;6.30;99.90;;;;;;5012786;28;20391;-72
2024/03/28 04:05:51;;;;;;;8.67;7.40;;;6.30;99.90;;;;;;5013029;28;20207;-72
2024/03/28 04:08:17;;;;;;;8.77;7.43;;;6.30;99.90;;;;;;5013140;28;20655;-72
2024/03/28 04:10:43;;;;;;;8.90;8.10;;;6.40;99.90;;;;;;5013043;28;20178;-72
2024/03/28 04:13:08;;;;;;;8.77;7.97;;;6.40;99.90;;;;;;5012766;28;20212;-72
2024/03/28 04:15:34;;;;;;;9.90;8.40;;;6.40;99.90;;;;;;5012932;28;20172;-72
2024/03/28 04:17:59;;;;;;;9.40;8.20;;;6.40;99.90;;;;;;5012893;28;20184;-72
2024/03/28 04:20:25;;;;;;;9.53;8.57;;;6.40;99.90;;;;;;5012987;28;20250;-72
2024/03/28 04:22:51;;;;;;;8.53;7.73;;;6.40;99.90;;;;;;5031809;28;20215;-72
2024/03/28 04:25:16;;;;;;;7.80;7.10;;;6.30;99.90;;;;;;5032664;28;20225;-72
2024/03/28 04:27:42;;;;;;;8.47;7.67;;;6.30;99.90;;;;;;5032171;28;20207;-73
2024/03/28 04:30:08;;;;;;;8.40;7.60;;;6.30;99.90;;;;;;5032698;28;20675;-73
2024/03/28 04:32:33;;;;;;;8.17;7.47;;;6.30;99.90;;;;;;5031914;28;20202;-72
2024/03/28 04:34:59;;;;;;;8.13;7.43;;;6.20;99.90;;;;;;5032574;28;20725;-72
2024/03/28 04:37:25;;;;;;;9.07;8.17;;;6.10;99.90;;;;;;5032410;28;20210;-72
2024/03/28 04:39:50;;;;;;;9.30;8.30;;;6.10;99.90;;;;;;5032369;28;20268;-72
2024/03/28 04:42:16;;;;;;;9.00;8.10;;;6.10;99.90;;;;;;5032236;28;20206;-72
2024/03/28 04:44:42;;;;;;;9.23;8.30;;;6.10;99.90;;;;;;5032341;28;20221;-72
2024/03/28 04:47:07;;;;;;;8.73;7.73;;;6.00;99.90;;;;;;5029658;28;20207;-72
2024/03/28 04:49:33;;;;;;;9.10;8.20;;;6.00;99.90;;;;;;5012661;28;20648;-72
2024/03/28 04:51:59;;;;;;;8.67;7.83;;;6.00;99.90;;;;;;5012774;28;20200;-72
2024/03/28 04:54:24;;;;;;;9.47;8.57;;;5.90;99.90;;;;;;5012725;28;20187;-72
2024/03/28 04:56:50;;;;;;;8.77;7.97;;;5.90;99.90;;;;;;5011955;28;20180;-74
2024/03/28 04:59:16;;;;;;;9.27;8.37;;;6.00;99.90;;;;;;5012463;28;20184;-72
2024/03/28 05:01:41;;;;;;;9.00;7.90;;;6.00;99.90;;;;;;5012313;28;20211;-72
2024/03/28 05:04:08;;;;;;;8.37;7.63;;;6.10;99.90;;;;;;5012261;28;20226;-72
2024/03/28 05:06:34;;;;;;;8.93;7.80;;;6.10;99.90;;;;;;5011922;28;20219;-72
2024/03/28 05:09:00;;;;;;;9.50;7.93;;;6.10;99.90;;;;;;5012168;28;20169;-72
2024/03/28 05:11:25;;;;;;;8.90;8.10;;;6.20;99.90;;;;;;5011795;28;20238;-72
2024/03/28 05:13:51;;;;;;;9.33;8.07;;;6.20;99.90;;;;;;5011797;28;20219;-72
2024/03/28 05:16:17;;;;;;;8.73;7.93;;;6.20;99.90;;;;;;5026137;28;20664;-72
2024/03/28 05:18:43;;;;;;;9.90;8.90;;;6.20;99.90;;;;;;5031716;28;20592;-72
2024/03/28 05:21:09;;;;;;;11.80;8.20;;;6.20;99.90;;;;;;5031769;28;20564;-71
2024/03/28 05:23:34;;;;;;;8.90;8.00;;;6.20;99.90;;;;;;5031444;28;20237;-72
2024/03/28 05:26:00;;;;;;;8.63;7.83;;;6.10;99.90;;;;;;5031323;28;20625;-72
2024/03/28 05:28:26;;;;;;;9.33;8.43;;;6.20;99.90;;;;;;5031583;28;20178;-72
2024/03/28 05:30:52;;;;;;;9.23;8.20;;;6.10;99.90;;;;;;5018090;28;20191;-72
2024/03/28 05:33:18;;;;;;;8.77;7.87;;;6.10;99.90;;;;;;5012114;28;20258;-72
2024/03/28 05:35:44;;;;;;;9.03;8.13;;;6.10;99.90;;;;;;5011739;28;20584;-73
2024/03/28 05:38:10;;;;;;;9.30;8.30;;;6.10;99.90;;;;;;5012234;28;20180;-72
2024/03/28 05:40:36;;;;;;;10.70;8.50;;;6.10;99.90;;;;;;5011994;28;20259;-73
2024/03/28 05:43:01;;;;;;;9.50;8.10;;;6.10;99.90;;;;;;5042768;28;20658;-72
2024/03/28 05:45:27;;;;;;;11.60;8.73;;;6.20;99.90;;;;;;5018531;28;20623;-73
2024/03/28 05:47:53;;;;;;;9.33;8.43;;;6.20;99.90;;;;;;5031471;28;20699;-72
2024/03/28 05:50:18;;;;;;;9.00;8.13;;;6.20;99.90;;;;;;5031790;28;20547;-73
2024/03/28 05:52:44;;;;;;;9.23;8.43;;;6.20;99.90;;;;;;5031486;28;20196;-72
2024/03/28 05:55:09;;;;;;;8.33;7.53;;;6.20;99.90;;;;;;5031221;28;20191;-72
2024/03/28 05:57:35;;;;;;;8.63;7.77;;;6.30;99.90;;;;;;5031489;28;20211;-72
2024/03/28 06:00:00;;;;;;;9.20;8.40;;;6.30;99.90;;;;;;5031539;28;20540;-72
2024/03/28 06:02:26;;;;;;;9.10;8.23;;;6.30;99.90;;;;;;5031394;28;20199;-72
2024/03/28 06:04:51;;;;;;;9.00;8.10;;;6.30;99.90;;;;;;5031267;28;20267;-72
2024/03/28 06:07:17;;;;;;;9.03;8.13;;;6.30;99.90;;;;;;5031284;28;20580;-72
2024/03/28 06:09:43;;;;;;;9.53;7.77;;;6.30;99.90;;;;;;5023781;28;20184;-72
2024/03/28 06:12:09;;;;;;;9.97;7.90;;;6.30;99.90;;;;;;5013696;28;20215;-72
2024/03/28 06:14:38;;;;;;;8.00;7.33;;;6.40;99.90;;;;;;5031272;28;20522;-73
2024/03/28 06:17:03;;;;;;;8.97;8.17;;;6.40;99.90;;;;;;5031197;28;20179;-72
2024/03/28 06:19:29;;;;;;;8.30;7.50;;;6.50;99.90;;;;;;5031576;28;20193;-72
2024/03/28 06:21:54;;;;;;;8.00;7.33;;;6.50;99.90;;;;;;5031933;28;20180;-72
2024/03/28 06:24:20;;;;;;;7.47;6.67;;;6.60;99.90;;;;;;5016453;28;20219;-72
2024/03/28 06:26:47;;;;;;;7.17;6.57;;;6.80;99.90;;;;;;5015343;28;20200;-72
2024/03/28 06:29:13;;;;;;;6.77;6.27;;;7.00;99.90;;;;;;5015400;28;20229;-73
2024/03/28 06:31:40;;;;;;;6.70;6.00;;;7.30;99.90;;;;;;5015252;28;20693;-72
2024/03/28 06:34:06;;;;;;;6.53;5.93;;;7.60;99.90;;;;;;5016063;28;20250;-72
2024/03/28 06:36:32;;;;;;;6.47;5.97;;;7.80;99.90;;;;;;5034996;28;20218;-72
2024/03/28 06:38:57;;;;;;;6.47;5.83;;;8.10;99.90;;;;;;5017318;28;20704;-72
2024/03/28 06:41:23;;;;;;;5.83;5.43;;;8.40;99.90;;;;;;5015159;28;20207;-73
2024/03/28 06:43:49;;;;;;;5.60;5.10;;;8.70;99.90;;;;;;5014724;28;20204;-73
2024/03/28 06:46:15;;;;;;;4.73;4.43;;;9.10;99.90;;;;;;5014794;28;20176;-72
2024/03/28 06:48:41;;;;;;;5.23;4.80;;;9.40;99.90;;;;;;5046736;28;20195;-72
2024/03/28 06:51:06;;;;;;;6.20;4.87;;;9.60;99.90;;;;;;5014929;28;20230;-72
2024/03/28 06:53:32;;;;;;;5.73;4.37;;;9.70;99.90;;;;;;5029999;28;20567;-72
2024/03/28 06:55:57;;;;;;;4.83;4.43;;;9.70;99.90;;;;;;5034636;28;20198;-72
2024/03/28 06:58:23;;;;;;;4.97;4.57;;;9.70;99.90;;;;;;5034463;28;20218;-73
2024/03/28 07:01:02;;;;;;;4.97;4.47;;;9.80;99.90;;;;;;5034440;28;20528;-72
2024/03/28 07:03:28;;;;;;;4.90;4.50;;;9.80;99.90;;;;;;5032315;28;20289;-73
2024/03/28 07:05:53;;;;;;;4.90;4.50;;;9.80;99.90;;;;;;5025717;28;20279;-72
2024/03/28 07:08:19;;;;;;;5.23;4.83;;;9.70;99.90;;;;;;5014530;28;20208;-75
2024/03/28 07:10:45;;;;;;;4.97;4.57;;;9.50;99.90;;;;;;5014489;28;20172;-73
2024/03/28 07:13:10;;;;;;;5.33;4.93;;;9.40;99.90;;;;;;5030398;28;20241;-73
2024/03/28 07:15:36;;;;;;;5.63;5.03;;;9.20;99.90;;;;;;5034099;28;20262;-72
2024/03/28 07:18:02;;;;;;;4.60;4.30;;;9.10;99.90;;;;;;5033962;28;20286;-72
2024/03/28 07:20:27;;;;;;;5.10;4.73;;;9.00;99.90;;;;;;5034014;28;20176;-72
2024/03/28 07:22:53;;;;;;;4.73;4.33;;;8.80;99.90;;;;;;5033510;28;20891;-73
2024/03/28 07:25:18;;;;;;;4.90;4.60;;;8.70;99.90;;;;;;5033874;28;20345;-72
2024/03/28 07:27:44;;;;;;;5.70;5.20;;;8.60;99.90;;;;;;5018140;28;20250;-72
2024/03/28 07:30:10;;;;;;;6.90;5.07;;;8.40;99.90;;;;;;5015042;28;20679;-72
2024/03/28 07:32:37;;;;;;;5.33;4.83;;;8.30;99.90;;;;;;5024328;28;20686;-73
2024/03/28 07:35:02;;;;;;;5.77;5.33;;;8.10;99.90;;;;;;5016598;28;20234;-73
2024/03/28 07:37:28;;;;;;;7.00;6.30;;;8.00;99.90;;;;;;5022715;28;20190;-73
2024/03/28 07:39:54;;;;;;;5.90;5.40;;;7.90;99.90;;;;;;5027542;28;20261;-73
2024/03/28 07:42:19;;;;;;;6.77;6.00;;;7.80;99.90;;;;;;5033512;28;20265;-73
2024/03/28 07:44:45;;;;;;;5.60;5.10;;;7.80;99.90;;;;;;5033430;28;20187;-73
2024/03/28 07:47:11;;;;;;;5.70;5.30;;;7.70;99.90;;;;;;5021087;28;20210;-74
2024/03/28 07:49:37;;;;;;;6.97;6.00;;;7.70;99.90;;;;;;5013504;28;20259;-74
2024/03/28 07:52:02;;;;;;;6.13;5.63;;;7.60;99.90;;;;;;5013414;28;20223;-73
2024/03/28 07:54:28;;;;;;;7.63;6.93;;;7.60;99.90;;;;;;5013960;28;20165;-73
2024/03/28 07:56:53;;;;;;;5.70;5.20;;;7.50;99.90;;;;;;5012977;28;20183;-73
2024/03/28 07:59:20;;;;;;;5.73;5.13;;;7.50;99.90;;;;;;5013630;28;20176;-75
2024/03/28 08:01:46;;;;;;;4.77;4.43;;;7.40;99.90;;;;;;5027939;28;20175;-74
2024/03/28 08:04:12;;;;;;;4.33;4.10;;;7.40;99.90;;;;;;5032374;28;20167;-73
2024/03/28 08:06:39;;;;;;;4.17;3.80;;;7.30;99.90;;;;;;5032435;28;20252;-74
2024/03/28 08:09:05;;;;;;;4.20;3.90;;;7.30;99.90;;;;;;5032453;28;20164;-72
2024/03/28 08:11:30;;;;;;;4.40;4.10;;;7.30;99.90;;;;;;5034097;28;20310;-73
2024/03/28 08:13:56;;;;;;;4.43;4.07;;;7.20;99.90;;;;;;5169813;23;20280;-76
2024/03/28 08:16:22;;;;;;;5.20;4.70;;;7.30;99.90;;;;;;5053374;28;20197;-74
2024/03/28 08:18:48;;;;;;;8.90;4.93;;;7.20;99.90;;;;;;5053329;28;20182;-75
2024/03/28 08:21:15;;;;;;;4.47;4.10;;;7.30;99.90;;;;;;5053007;28;20238;-74
2024/03/28 08:23:42;;;;;;;4.30;4.00;;;7.30;99.90;;;;;;5038778;28;20186;-74
2024/03/28 08:26:09;;;;;;;4.10;3.80;;;7.30;99.90;;;;;;5032852;28;20254;-73
2024/03/28 08:28:34;;;;;;;4.30;4.00;;;7.20;99.90;;;;;;5033149;28;20164;-74
2024/03/28 08:31:00;;;;;;;4.10;3.80;;;7.20;99.90;;;;;;5032891;28;20259;-75
2024/03/28 08:33:27;;;;;;;4.07;3.87;;;7.20;99.90;;;;;;5033095;28;20188;-73
2024/03/28 08:35:53;;;;;;;4.10;3.80;;;7.20;99.90;;;;;;5032793;28;20227;-74
2024/03/28 08:38:18;;;;;;;3.97;3.67;;;7.20;99.90;;;;;;5032617;28;20168;-74
2024/03/28 08:40:44;;;;;;;3.90;3.70;;;7.20;99.90;;;;;;5032472;28;20176;-74
2024/03/28 08:43:09;;;;;;;4.43;4.17;;;7.20;99.90;;;;;;5032194;28;20198;-75
2024/03/28 08:45:35;;;;;;;4.27;4.00;;;7.30;99.90;;;;;;5030454;28;20532;-74
2024/03/28 08:48:05;;;;;;;4.37;4.07;;;7.30;99.90;;;;;;5032175;28;20409;-74
2024/03/28 08:50:30;;;;;;;4.00;3.80;;;7.40;99.90;;;;;;5030720;28;20170;-73
2024/03/28 08:52:56;;;;;;;4.37;4.07;;;7.50;99.90;;;;;;5031367;28;20195;-74
2024/03/28 08:55:23;;;;;;;4.50;4.20;;;7.60;99.90;;;;;;5032062;28;20171;-74
2024/03/28 08:57:51;;;;;;;4.37;4.17;;;7.70;99.90;;;;;;5031768;28;20175;-74
2024/03/28 09:00:19;;;;;;;5.20;4.60;;;7.80;99.90;;;;;;5031975;28;20259;-75
2024/03/28 09:02:45;;;;;;;4.33;4.03;;;7.80;99.90;;;;;;5031485;28;20199;-74
2024/03/28 09:05:11;;;;;;;4.17;3.87;;;7.70;99.90;;;;;;5031648;28;20180;-75
2024/03/28 09:07:38;;;;;;;4.37;4.10;;;7.70;99.90;;;;;;5031850;28;20280;-75
2024/03/28 09:10:07;;;;;;;4.20;4.00;;;7.70;99.90;;;;;;5032059;28;20258;-77
2024/03/28 09:12:37;;;;;;;4.50;4.20;;;7.70;99.90;;;;;;5031879;28;20214;-75
2024/03/28 09:15:03;;;;;;;4.00;3.80;;;7.70;99.90;;;;;;5031793;28;20179;-74
2024/03/28 09:17:29;;;;;;;4.17;3.97;;;7.80;99.90;;;;;;5031594;28;20187;-74
2024/03/28 09:19:57;;;;;;;4.37;4.07;;;7.80;99.90;;;;;;5031863;28;20244;-74
2024/03/28 09:22:23;;;;;;;4.70;4.40;;;8.00;99.90;;;;;;5031918;28;20191;-74
2024/03/28 09:24:48;;;;;;;4.27;4.07;;;8.20;99.90;;;;;;5031393;28;20182;-74
2024/03/28 09:27:14;;;;;;;4.27;3.97;;;8.40;99.90;;;;;;5031441;28;20576;-74
2024/03/28 09:29:41;;;;;;;3.77;3.57;;;8.50;99.90;;;;;;5031510;28;20182;-74
2024/03/28 09:32:07;;;;;;;3.93;3.70;;;8.60;99.90;;;;;;5031621;28;20171;-73
2024/03/28 09:34:33;;;;;;;4.30;4.00;;;8.70;99.90;;;;;;5031681;28;20186;-74
2024/03/28 09:36:59;;;;;;;4.20;3.90;;;8.80;99.90;;;;;;5030539;28;20175;-73
2024/03/28 09:39:25;;;;;;;4.03;3.83;;;8.90;99.90;;;;;;5030638;28;20187;-74
2024/03/28 09:41:53;;;;;;;3.50;3.30;;;8.90;99.90;;;;;;5031159;28;20222;-74
2024/03/28 09:44:20;;;;;;;3.83;3.63;;;8.90;99.90;;;;;;5033268;28;20207;-74
2024/03/28 09:46:50;;;;;;;3.60;3.40;;;8.80;99.90;;;;;;5036441;28;20199;-75
2024/03/28 09:49:19;;;;;;;3.57;3.37;;;8.80;99.90;;;;;;5030332;28;20184;-75
2024/03/28 09:51:48;;;;;;;3.80;3.50;;;8.80;99.90;;;;;;5031338;28;20232;-74
2024/03/28 09:54:14;;;;;;;3.60;3.40;;;8.70;99.90;;;;;;5031014;28;20210;-74
2024/03/28 09:56:40;;;;;;;3.90;3.60;;;8.70;99.90;;;;;;5032439;28;20171;-74
2024/03/28 09:59:06;;;;;;;3.40;3.20;;;8.70;99.90;;;;;;5036127;28;20263;-75
2024/03/28 10:01:33;;;;;;;3.50;3.30;;;8.60;99.90;;;;;;5035401;28;20266;-74
2024/03/28 10:04:18;;;;;;;3.60;3.40;;;8.60;99.90;;;;;;5035899;28;20256;-74
2024/03/28 10:06:47;;;;;;;3.40;3.10;;;8.50;99.90;;;;;;5034870;28;20202;-75
2024/03/28 10:09:14;;;;;;;3.83;3.30;;;8.50;99.90;;;;;;5035304;28;20246;-76
2024/03/28 10:11:40;;;;;;;4.10;3.80;;;8.50;99.90;;;;;;5035372;28;20168;-74
2024/03/28 10:14:18;;;;;;;3.73;3.53;;;8.30;99.90;;;;;;5036752;28;20199;-74
2024/03/28 10:16:48;;;;;;;3.83;3.63;;;8.10;99.90;;;;;;5034654;28;20254;-74
2024/03/28 10:19:18;;;;;;;4.00;3.60;;;7.90;99.90;;;;;;5034489;28;20180;-77
2024/03/28 10:21:44;;;;;;;4.10;3.87;;;7.90;99.90;;;;;;5035967;28;20621;-78
2024/03/28 10:24:17;;;;;;;4.10;3.90;;;8.00;99.90;;;;;;5036874;28;20696;-76
2024/03/28 10:26:43;;;;;;;3.97;3.77;;;8.20;99.90;;;;;;5034735;28;20676;-76
2024/03/28 10:29:18;;;;;;;4.03;3.83;;;8.30;99.90;;;;;;5033631;28;20182;-76
2024/03/28 10:31:44;;;;;;;6.30;5.70;;;8.50;99.90;;;;;;5034034;28;20171;-76
2024/03/28 10:34:16;;;;;;;5.50;5.00;;;8.60;99.90;;;;;;5034476;28;20198;-76
2024/03/28 10:36:42;;;;;;;5.73;4.97;;;8.80;99.90;;;;;;5034055;28;20706;-74
2024/03/28 10:39:08;;;;;;;8.03;6.70;;;8.90;99.90;;;;;;5034355;28;20171;-76
2024/03/28 10:41:35;;;;;;;4.73;4.30;;;9.10;99.90;;;;;;5034483;28;20171;-76
2024/03/28 10:44:01;;;;;;;3.80;3.60;;;9.40;99.90;;;;;;5034314;28;20191;-77
2024/03/28 10:46:28;;;;;;;5.07;4.53;;;9.70;99.90;;;;;;5033591;28;20302;-75
2024/03/28 10:49:05;;;;;;;3.10;3.00;;;9.80;99.90;;;;;;5034403;28;20186;-78
2024/03/28 10:51:42;;;;;;;3.30;3.10;;;10.00;99.90;;;;;;5034260;28;20167;-77
2024/03/28 10:54:28;;;;;;;3.00;2.80;;;10.40;99.90;;;;;;5034224;28;20191;-78
2024/03/28 10:56:54;;;;;;;3.07;2.87;;;10.80;99.90;;;;;;5033568;28;20186;-76
2024/03/28 10:59:25;;;;;;;3.40;3.10;;;11.10;99.90;;;;;;5032851;28;20183;-77
2024/03/28 11:01:53;;;;;;;2.77;2.57;;;11.30;99.90;;;;;;5033320;28;20171;-76
2024/03/28 11:04:20;;;;;;;3.03;2.83;;;11.60;99.90;;;;;;5035204;28;20692;-77
2024/03/28 11:06:46;;;;;;;3.10;2.90;;;11.90;99.90;;;;;;5034875;28;20267;-77
2024/03/28 11:09:13;;;;;;;2.97;2.77;;;12.10;99.90;;;;;;5035732;28;20172;-76
2024/03/28 11:11:40;;;;;;;4.30;3.07;;;12.50;99.90;;;;;;5036425;28;20168;-77
2024/03/28 11:14:06;;;;;;;2.90;2.70;;;13.10;99.90;;;;;;5034428;28;20553;-77
2024/03/28 11:16:32;;;;;;;3.00;2.80;;;13.60;99.90;;;;;;5035664;28;20221;-78
2024/03/28 11:19:00;;;;;;;2.60;2.40;;;14.00;99.90;;;;;;5033914;28;20229;-75
2024/03/28 11:21:27;;;;;;;3.20;3.00;;;14.30;99.90;;;;;;5034494;28;20167;-77
2024/03/28 11:23:53;;;;;;;2.80;2.70;;;14.50;99.90;;;;;;5035251;28;20190;-75
2024/03/28 11:26:24;;;;;;;2.40;2.00;;;14.40;96.50;;;;;;5034659;28;20716;-75
2024/03/28 11:29:08;;;;;;;2.67;2.40;;;14.30;94.10;;;;;;5034743;28;20530;-73
2024/03/28 11:31:34;;;;;;;2.17;2.07;;;14.30;95.10;;;;;;5034348;28;20168;-76
2024/03/28 11:34:01;;;;;;;2.20;2.10;;;14.50;94.00;;;;;;5034486;28;20246;-77
2024/03/28 11:36:28;;;;;;;2.43;2.20;;;14.50;92.00;;;;;;5033744;28;20251;-75
2024/03/28 11:38:53;;;;;;;2.23;2.03;;;14.00;87.50;;;;;;5034370;28;20175;-72
2024/03/28 11:41:21;;;;;;;2.53;2.20;;;13.60;89.20;;;;;;5035641;28;20664;-76
2024/03/28 11:43:47;;;;;;;2.70;2.30;;;13.20;90.90;;;;;;5036753;28;20200;-75
2024/03/28 11:46:14;;;;;;;21.77;10.73;;;12.90;86.70;;;;;;5037318;28;20171;-76
2024/03/28 11:48:39;;;;;;;3.63;2.43;;;12.60;90.80;;;;;;5033388;28;20175;-76
2024/03/28 11:51:06;;;;;;;2.90;2.20;;;12.60;92.20;;;;;;5033420;28;20533;-75
2024/03/28 11:53:38;;;;;;;2.73;2.50;;;12.80;92.20;;;;;;5034007;28;20567;-76
2024/03/28 11:56:05;;;;;;;4.60;3.10;;;12.90;90.30;;;;;;5034624;28;20249;-76
2024/03/28 11:58:31;;;;;;;2.43;2.23;;;13.00;93.30;;;;;;5034598;28;20187;-73
2024/03/28 12:00:59;;;;;;;4.30;2.60;;;13.20;86.70;;;;;;5034101;28;20187;-78
2024/03/28 12:03:24;;;;;;;2.50;2.30;;;13.40;90.20;;;;;;5033986;28;20611;-78
2024/03/28 12:05:51;;;;;;;2.47;2.27;;;13.80;86.80;;;;;;5034861;28;20176;-77
2024/03/28 12:08:21;;;;;;;2.57;2.37;;;14.00;84.90;;;;;;5033088;28;20195;-76
2024/03/28 12:10:47;;;;;;;2.50;2.30;;;14.20;79.80;;;;;;5032957;28;20163;-76
2024/03/28 12:13:12;;;;;;;2.87;2.30;;;14.20;80.60;;;;;;5032368;28;20203;-76
2024/03/28 12:15:38;;;;;;;4.03;2.70;;;14.30;81.20;;;;;;5032428;28;20168;-75
2024/03/28 12:18:04;;;;;;;2.10;2.00;;;14.60;78.50;;;;;;5032812;28;20542;-76
2024/03/28 12:20:31;;;;;;;4.40;2.30;;;14.60;73.20;;;;;;5031684;28;20164;-74
2024/03/28 12:22:58;;;;;;;3.93;1.93;;;14.80;77.50;;;;;;5032660;28;20203;-73
2024/03/28 12:25:25;;;;;;;3.13;2.80;;;14.80;68.70;;;;;;5033705;28;20172;-76
2024/03/28 12:28:01;;;;;;;3.57;2.40;;;14.40;68.60;;;;;;5035180;28;20265;-77
2024/03/28 12:30:28;;;;;;;2.87;2.20;;;14.10;70.60;;;;;;5033973;28;20171;-77
2024/03/28 12:33:04;;;;;;;3.03;2.53;;;13.80;69.30;;;;;;5033203;28;20242;-77
2024/03/28 12:35:32;;;;;;;3.53;2.50;;;13.70;76.40;;;;;;5034681;28;20575;-75
2024/03/28 12:37:58;;;;;;;2.80;2.20;;;13.50;76.10;;;;;;5033357;28;20644;-77
2024/03/28 12:40:24;;;;;;;2.20;2.10;;;13.40;74.10;;;;;;5040547;28;20198;-74
2024/03/28 12:42:52;;;;;;;11.83;2.73;;;13.20;75.80;;;;;;5038638;28;20572;-71
2024/03/28 12:45:23;;;;;;;8.30;2.17;;;13.10;74.80;;;;;;5033183;28;20195;-76
2024/03/28 12:47:50;;;;;;;4.70;2.30;;;13.10;78.50;;;;;;5032079;28;20210;-77
2024/03/28 12:50:19;;;;;;;4.60;2.10;;;13.00;79.50;;;;;;5032879;28;20559;-76
2024/03/28 12:52:49;;;;;;;6.20;2.57;;;13.10;87.00;;;;;;5031908;28;20184;-74
2024/03/28 12:55:15;;;;;;;5.70;3.27;;;13.10;85.20;;;;;;5032923;28;20234;-73
2024/03/28 12:57:41;;;;;;;2.27;2.17;;;12.90;85.30;;;;;;5033487;28;20179;-74
2024/03/28 13:00:10;;;;;;;4.67;2.97;;;13.00;84.60;;;;;;5032410;28;20659;-77